CheckWX is a tool to help pilots better visualize weather data.  It is not intended as a substitute for an official pre-flight weather briefing.

09:37:05 UTC

NVVV TAF
Port Vila Bauerfield Airport
Port Vila, Vanuatu
TAF NVVV 200430Z 2006/2106 36010G20KT 9999 SCT020 PROB40 INTER 2006/2012 8000 SHRA BKN018 OVC040

Feb-20@
06:00 UTC

Feb-20 @ 06:00 UTC

Feb-21@
06:00 UTC

Feb-21 @ 06:00 UTC

TAF NVVV 200430Z 2006/2106 36010G20KT 9999 SCT020
Wind
  • 360° at 10 KTS
  • {Gusting to 20 KTS
Visibility
10,000+ meters
Cloud Levels
  • Scattered at 2,000' AGL

Feb-20@
06:00 UTC

Feb-20 @ 06:00 UTC

Feb-20@
12:00 UTC

Feb-20 @ 12:00 UTC

PROB40 INTER 2006/2012 8000 SHRA BKN018 OVC040

Temporary - 40% Likelihood

Temporary - 40% Likelihood during this time.

Visibility
7,998 meters
Conditions
Rain
Cloud Levels
  • Broken at 1,800' AGL
  • Overcast at 4,000' AGL